sensor_id;sensor_type;location;lat;lon;timestamp;pressure;altitude;pressure_sealevel;temperature;humidity
63321;BME280;49449;48.800;9.534;2023-04-21T00:00:23;98267.06;;;6.40;46.23
63321;BME280;49449;48.800;9.534;2023-04-21T00:02:51;98267.66;;;6.49;46.16
63321;BME280;49449;48.800;9.534;2023-04-21T00:05:19;98269.03;;;6.52;46.18
63321;BME280;49449;48.800;9.534;2023-04-21T00:07:46;98269.22;;;6.57;46.42
63321;BME280;49449;48.800;9.534;2023-04-21T00:10:14;98260.97;;;6.53;46.69
63321;BME280;49449;48.800;9.534;2023-04-21T00:12:43;98250.25;;;6.55;46.63
63321;BME280;49449;48.800;9.534;2023-04-21T00:15:11;98249.66;;;6.53;46.68
63321;BME280;49449;48.800;9.534;2023-04-21T00:17:39;98246.03;;;6.54;46.56
63321;BME280;49449;48.800;9.534;2023-04-21T00:20:07;98238.97;;;6.54;46.77
63321;BME280;49449;48.800;9.534;2023-04-21T00:22:36;98244.41;;;6.53;46.73
63321;BME280;49449;48.800;9.534;2023-04-21T00:25:05;98245.22;;;6.53;46.60
63321;BME280;49449;48.800;9.534;2023-04-21T00:27:32;98237.78;;;6.50;46.50
63321;BME280;49449;48.800;9.534;2023-04-21T00:30:02;98225.69;;;6.42;46.81
63321;BME280;49449;48.800;9.534;2023-04-21T00:32:30;98224.69;;;6.43;46.86
63321;BME280;49449;48.800;9.534;2023-04-21T00:34:57;98228.69;;;6.46;46.90
63321;BME280;49449;48.800;9.534;2023-04-21T00:37:25;98222.84;;;6.44;46.59
63321;BME280;49449;48.800;9.534;2023-04-21T00:39:53;98221.25;;;6.43;46.88
63321;BME280;49449;48.800;9.534;2023-04-21T00:42:21;98217.22;;;6.40;46.85
63321;BME280;49449;48.800;9.534;2023-04-21T00:44:48;98216.41;;;6.40;46.76
63321;BME280;49449;48.800;9.534;2023-04-21T00:47:18;98219.25;;;6.38;46.67
63321;BME280;49449;48.800;9.534;2023-04-21T00:49:46;98220.84;;;6.39;46.55
63321;BME280;49449;48.800;9.534;2023-04-21T00:52:16;98218.22;;;6.39;46.86
63321;BME280;49449;48.800;9.534;2023-04-21T00:54:44;98216.03;;;6.36;46.80
63321;BME280;49449;48.800;9.534;2023-04-21T00:57:12;98212.56;;;6.36;46.47
63321;BME280;49449;48.800;9.534;2023-04-21T00:59:40;98206.72;;;6.34;46.58
63321;BME280;49449;48.800;9.534;2023-04-21T01:02:08;98199.69;;;6.34;46.77
63321;BME280;49449;48.800;9.534;2023-04-21T01:04:37;98205.72;;;6.35;46.59
63321;BME280;49449;48.800;9.534;2023-04-21T01:07:05;98203.13;;;6.21;46.66
63321;BME280;49449;48.800;9.534;2023-04-21T01:09:35;98207.97;;;6.24;46.99
63321;BME280;49449;48.800;9.534;2023-04-21T01:12:04;98211.97;;;6.27;46.72
63321;BME280;49449;48.800;9.534;2023-04-21T01:14:32;98206.97;;;6.19;46.81
63321;BME280;49449;48.800;9.534;2023-04-21T01:17:00;98206.13;;;6.25;46.43
63321;BME280;49449;48.800;9.534;2023-04-21T01:19:31;98204.53;;;6.31;46.91
63321;BME280;49449;48.800;9.534;2023-04-21T01:22:01;98200.28;;;6.36;46.70
63321;BME280;49449;48.800;9.534;2023-04-21T01:24:36;98192.81;;;6.40;46.42
63321;BME280;49449;48.800;9.534;2023-04-21T01:27:08;98183.69;;;6.42;46.49
63321;BME280;49449;48.800;9.534;2023-04-21T01:29:37;98190.56;;;6.43;46.41
63321;BME280;49449;48.800;9.534;2023-04-21T01:32:06;98183.31;;;6.39;46.58
63321;BME280;49449;48.800;9.534;2023-04-21T01:34:34;98183.31;;;6.32;46.51
63321;BME280;49449;48.800;9.534;2023-04-21T01:37:06;98188.75;;;6.37;46.09
63321;BME280;49449;48.800;9.534;2023-04-21T01:39:36;98194.22;;;6.29;46.45
63321;BME280;49449;48.800;9.534;2023-04-21T01:42:04;98192.63;;;6.21;46.77
63321;BME280;49449;48.800;9.534;2023-04-21T01:44:32;98188.03;;;6.10;46.92
63321;BME280;49449;48.800;9.534;2023-04-21T01:47:00;98185.00;;;6.13;46.74
63321;BME280;49449;48.800;9.534;2023-04-21T01:49:28;98191.03;;;6.20;46.48
63321;BME280;49449;48.800;9.534;2023-04-21T01:51:56;98188.19;;;6.22;46.42
63321;BME280;49449;48.800;9.534;2023-04-21T01:54:25;98189.78;;;6.23;46.52
63321;BME280;49449;48.800;9.534;2023-04-21T01:56:53;98182.72;;;6.23;46.22
63321;BME280;49449;48.800;9.534;2023-04-21T01:59:20;98179.56;;;6.15;46.66
63321;BME280;49449;48.800;9.534;2023-04-21T02:01:48;98189.84;;;6.09;46.35
63321;BME280;49449;48.800;9.534;2023-04-21T02:04:16;98178.72;;;6.14;46.14
63321;BME280;49449;48.800;9.534;2023-04-21T02:06:44;98183.19;;;6.07;46.95
63321;BME280;49449;48.800;9.534;2023-04-21T02:09:11;98186.25;;;5.97;46.94
63321;BME280;49449;48.800;9.534;2023-04-21T02:11:40;98194.91;;;6.04;46.78
63321;BME280;49449;48.800;9.534;2023-04-21T02:14:08;98178.13;;;6.12;46.91
63321;BME280;49449;48.800;9.534;2023-04-21T02:16:36;98182.78;;;6.17;46.93
63321;BME280;49449;48.800;9.534;2023-04-21T02:19:04;98190.25;;;6.13;46.87
63321;BME280;49449;48.800;9.534;2023-04-21T02:21:31;98190.06;;;6.08;47.05
63321;BME280;49449;48.800;9.534;2023-04-21T02:23:59;98185.41;;;6.03;46.44
63321;BME280;49449;48.800;9.534;2023-04-21T02:26:27;98189.69;;;5.91;47.34
63321;BME280;49449;48.800;9.534;2023-04-21T02:28:56;98183.44;;;5.92;47.08
63321;BME280;49449;48.800;9.534;2023-04-21T02:31:24;98186.06;;;5.85;47.10
63321;BME280;49449;48.800;9.534;2023-04-21T02:33:51;98192.13;;;5.86;47.03
63321;BME280;49449;48.800;9.534;2023-04-21T02:36:20;98188.31;;;5.82;47.10
63321;BME280;49449;48.800;9.534;2023-04-21T02:38:47;98190.94;;;5.75;47.10
63321;BME280;49449;48.800;9.534;2023-04-21T02:41:15;98193.16;;;5.78;46.94
63321;BME280;49449;48.800;9.534;2023-04-21T02:43:43;98189.09;;;5.82;46.65
63321;BME280;49449;48.800;9.534;2023-04-21T02:46:12;98192.13;;;5.79;46.82
63321;BME280;49449;48.800;9.534;2023-04-21T02:48:39;98195.38;;;5.81;46.92
63321;BME280;49449;48.800;9.534;2023-04-21T02:51:10;98189.28;;;5.87;46.70
63321;BME280;49449;48.800;9.534;2023-04-21T02:53:38;98189.09;;;5.96;46.93
63321;BME280;49449;48.800;9.534;2023-04-21T02:56:06;98193.09;;;5.92;46.96
63321;BME280;49449;48.800;9.534;2023-04-21T02:58:34;98198.59;;;5.83;47.09
63321;BME280;49449;48.800;9.534;2023-04-21T03:01:04;98199.00;;;5.87;46.96
63321;BME280;49449;48.800;9.534;2023-04-21T03:03:33;98191.91;;;5.94;47.11
63321;BME280;49449;48.800;9.534;2023-04-21T03:06:03;98199.56;;;6.02;46.79
63321;BME280;49449;48.800;9.534;2023-04-21T03:08:31;98195.97;;;5.90;46.68
63321;BME280;49449;48.800;9.534;2023-04-21T03:11:00;98201.22;;;5.90;47.09
63321;BME280;49449;48.800;9.534;2023-04-21T03:13:28;98198.78;;;5.82;47.26
63321;BME280;49449;48.800;9.534;2023-04-21T03:15:55;98187.13;;;5.78;47.20
63321;BME280;49449;48.800;9.534;2023-04-21T03:18:23;98190.94;;;5.75;47.55
63321;BME280;49449;48.800;9.534;2023-04-21T03:20:58;98186.91;;;5.66;47.53
63321;BME280;49449;48.800;9.534;2023-04-21T03:23:25;98178.63;;;5.76;47.03
63321;BME280;49449;48.800;9.534;2023-04-21T03:25:53;98180.03;;;5.78;47.14
63321;BME280;49449;48.800;9.534;2023-04-21T03:28:21;98177.63;;;5.77;47.44
63321;BME280;49449;48.800;9.534;2023-04-21T03:30:49;98171.00;;;5.67;47.35
63321;BME280;49449;48.800;9.534;2023-04-21T03:33:16;98175.84;;;5.64;47.67
63321;BME280;49449;48.800;9.534;2023-04-21T03:35:44;98175.22;;;5.68;47.44
63321;BME280;49449;48.800;9.534;2023-04-21T03:38:13;98166.75;;;5.80;47.43
63321;BME280;49449;48.800;9.534;2023-04-21T03:40:41;98170.75;;;5.76;47.10
63321;BME280;49449;48.800;9.534;2023-04-21T03:43:09;98176.63;;;5.78;47.36
63321;BME280;49449;48.800;9.534;2023-04-21T03:45:36;98173.75;;;5.86;46.96
63321;BME280;49449;48.800;9.534;2023-04-21T03:48:04;98166.31;;;5.83;46.96
63321;BME280;49449;48.800;9.534;2023-04-21T03:50:32;98168.53;;;5.79;47.14
63321;BME280;49449;48.800;9.534;2023-04-21T03:53:00;98178.44;;;5.70;47.18
63321;BME280;49449;48.800;9.534;2023-04-21T03:55:29;98176.44;;;5.66;47.05
63321;BME280;49449;48.800;9.534;2023-04-21T03:57:57;98172.97;;;5.72;47.00
63321;BME280;49449;48.800;9.534;2023-04-21T04:00:24;98184.09;;;5.74;47.24
63321;BME280;49449;48.800;9.534;2023-04-21T04:02:52;98182.28;;;5.75;47.12
63321;BME280;49449;48.800;9.534;2023-04-21T04:05:20;98187.13;;;5.78;47.12
63321;BME280;49449;48.800;9.534;2023-04-21T04:07:48;98191.13;;;5.80;46.72
63321;BME280;49449;48.800;9.534;2023-04-21T04:10:16;98189.50;;;5.86;46.96
63321;BME280;49449;48.800;9.534;2023-04-21T04:12:45;98194.94;;;5.91;46.68
63321;BME280;49449;48.800;9.534;2023-04-21T04:15:12;98191.50;;;5.90;46.61
63321;BME280;49449;48.800;9.534;2023-04-21T04:17:40;98198.16;;;5.93;46.70
63321;BME280;49449;48.800;9.534;2023-04-21T04:20:08;98200.41;;;5.76;46.38
63321;BME280;49449;48.800;9.534;2023-04-21T04:22:36;98195.19;;;5.63;46.71
63321;BME280;49449;48.800;9.534;2023-04-21T04:25:04;98196.56;;;5.72;46.82
63321;BME280;49449;48.800;9.534;2023-04-21T04:27:33;98202.03;;;5.57;46.88
63321;BME280;49449;48.800;9.534;2023-04-21T04:30:02;98202.84;;;5.58;46.94
63321;BME280;49449;48.800;9.534;2023-04-21T04:32:31;98213.94;;;5.73;46.39
63321;BME280;49449;48.800;9.534;2023-04-21T04:34:59;98212.09;;;5.74;46.58
63321;BME280;49449;48.800;9.534;2023-04-21T04:37:27;98204.84;;;5.76;46.67
63321;BME280;49449;48.800;9.534;2023-04-21T04:39:57;98197.38;;;5.79;46.68
63321;BME280;49449;48.800;9.534;2023-04-21T04:42:25;98197.56;;;5.84;46.49
63321;BME280;49449;48.800;9.534;2023-04-21T04:44:52;98208.66;;;5.86;46.61
63321;BME280;49449;48.800;9.534;2023-04-21T04:47:21;98218.94;;;5.88;46.40
63321;BME280;49449;48.800;9.534;2023-04-21T04:49:49;98218.94;;;5.88;46.62
63321;BME280;49449;48.800;9.534;2023-04-21T04:52:17;98220.97;;;5.86;46.84
63321;BME280;49449;48.800;9.534;2023-04-21T04:54:45;98218.34;;;5.86;46.83
63321;BME280;49449;48.800;9.534;2023-04-21T04:57:13;98219.56;;;5.83;46.66
63321;BME280;49449;48.800;9.534;2023-04-21T04:59:41;98212.09;;;5.87;46.94
63321;BME280;49449;48.800;9.534;2023-04-21T05:02:08;98215.50;;;5.87;47.06
63321;BME280;49449;48.800;9.534;2023-04-21T05:04:38;98216.31;;;5.88;47.03
63321;BME280;49449;48.800;9.534;2023-04-21T05:07:06;98221.34;;;5.96;46.66
63321;BME280;49449;48.800;9.534;2023-04-21T05:09:34;98223.78;;;5.91;46.86
63321;BME280;49449;48.800;9.534;2023-04-21T05:12:01;98223.56;;;5.99;47.16
63321;BME280;49449;48.800;9.534;2023-04-21T05:14:29;98215.69;;;6.06;47.06
63321;BME280;49449;48.800;9.534;2023-04-21T05:16:57;98218.72;;;6.09;46.99
63321;BME280;49449;48.800;9.534;2023-04-21T05:19:24;98219.31;;;6.12;47.07
63321;BME280;49449;48.800;9.534;2023-04-21T05:21:57;98225.75;;;6.16;47.07
63321;BME280;49449;48.800;9.534;2023-04-21T05:24:26;98224.94;;;6.22;46.73
63321;BME280;49449;48.800;9.534;2023-04-21T05:26:53;98225.31;;;6.25;46.52
63321;BME280;49449;48.800;9.534;2023-04-21T05:29:21;98221.66;;;6.26;46.21
63321;BME280;49449;48.800;9.534;2023-04-21T05:31:49;98211.19;;;6.26;46.78
63321;BME280;49449;48.800;9.534;2023-04-21T05:34:17;98208.34;;;6.28;46.61
63321;BME280;49449;48.800;9.534;2023-04-21T05:36:44;98222.28;;;6.35;46.49
63321;BME280;49449;48.800;9.534;2023-04-21T05:39:15;98242.66;;;6.33;46.39
63321;BME280;49449;48.800;9.534;2023-04-21T05:41:44;98227.31;;;6.37;46.56
63321;BME280;49449;48.800;9.534;2023-04-21T05:44:11;98231.56;;;6.38;46.51
63321;BME280;49449;48.800;9.534;2023-04-21T05:46:39;98230.53;;;6.39;46.76
63321;BME280;49449;48.800;9.534;2023-04-21T05:49:07;98239.84;;;6.41;46.48
63321;BME280;49449;48.800;9.534;2023-04-21T05:51:35;98241.00;;;6.45;46.80
63321;BME280;49449;48.800;9.534;2023-04-21T05:54:02;98241.81;;;6.46;46.47
63321;BME280;49449;48.800;9.534;2023-04-21T05:56:32;98233.34;;;6.44;46.67
63321;BME280;49449;48.800;9.534;2023-04-21T05:58:59;98226.91;;;6.46;46.70
63321;BME280;49449;48.800;9.534;2023-04-21T06:01:27;98220.59;;;6.54;46.39
63321;BME280;49449;48.800;9.534;2023-04-21T06:03:55;98216.31;;;6.60;46.21
63321;BME280;49449;48.800;9.534;2023-04-21T06:06:24;98212.25;;;6.64;46.43
63321;BME280;49449;48.800;9.534;2023-04-21T06:08:52;98206.22;;;6.63;46.21
63321;BME280;49449;48.800;9.534;2023-04-21T06:11:20;98199.75;;;6.66;46.63
63321;BME280;49449;48.800;9.534;2023-04-21T06:13:50;98193.28;;;6.62;46.13
63321;BME280;49449;48.800;9.534;2023-04-21T06:16:19;98188.06;;;6.55;46.49
63321;BME280;49449;48.800;9.534;2023-04-21T06:18:47;98186.06;;;6.57;46.29
63321;BME280;49449;48.800;9.534;2023-04-21T06:21:15;98190.06;;;6.60;46.31
63321;BME280;49449;48.800;9.534;2023-04-21T06:23:43;98195.94;;;6.55;46.69
63321;BME280;49449;48.800;9.534;2023-04-21T06:26:10;98190.06;;;6.60;46.65
63321;BME280;49449;48.800;9.534;2023-04-21T06:28:39;98182.97;;;6.67;46.98
63321;BME280;49449;48.800;9.534;2023-04-21T06:31:08;98188.38;;;6.72;47.09
63321;BME280;49449;48.800;9.534;2023-04-21T06:33:40;98186.81;;;6.71;46.75
63321;BME280;49449;48.800;9.534;2023-04-21T06:36:08;98198.50;;;6.69;46.85
63321;BME280;49449;48.800;9.534;2023-04-21T06:38:36;98190.84;;;6.67;47.01
63321;BME280;49449;48.800;9.534;2023-04-21T06:41:05;98191.59;;;6.74;46.76
63321;BME280;49449;48.800;9.534;2023-04-21T06:43:33;98186.34;;;6.74;46.40
63321;BME280;49449;48.800;9.534;2023-04-21T06:46:00;98196.84;;;6.74;46.76
63321;BME280;49449;48.800;9.534;2023-04-21T06:48:30;98202.09;;;6.74;46.52
63321;BME280;49449;48.800;9.534;2023-04-21T06:50:57;98195.44;;;6.78;46.89
63321;BME280;49449;48.800;9.534;2023-04-21T06:53:25;98195.16;;;6.87;46.29
63321;BME280;49449;48.800;9.534;2023-04-21T06:55:53;98195.34;;;6.92;46.14
63321;BME280;49449;48.800;9.534;2023-04-21T06:58:21;98206.81;;;6.97;46.16
63321;BME280;49449;48.800;9.534;2023-04-21T07:00:49;98205.56;;;7.07;46.32
63321;BME280;49449;48.800;9.534;2023-04-21T07:03:17;98215.19;;;7.19;46.35
63321;BME280;49449;48.800;9.534;2023-04-21T07:05:46;98205.00;;;7.30;46.31
63321;BME280;49449;48.800;9.534;2023-04-21T07:08:14;98202.53;;;7.35;46.38
63321;BME280;49449;48.800;9.534;2023-04-21T07:10:41;98189.31;;;7.41;46.36
63321;BME280;49449;48.800;9.534;2023-04-21T07:13:09;98188.69;;;7.46;46.12
63321;BME280;49449;48.800;9.534;2023-04-21T07:15:37;98190.88;;;7.49;45.96
63321;BME280;49449;48.800;9.534;2023-04-21T07:18:05;98200.53;;;7.55;45.96
63321;BME280;49449;48.800;9.534;2023-04-21T07:20:32;98199.13;;;7.59;46.17
63321;BME280;49449;48.800;9.534;2023-04-21T07:23:02;98186.34;;;7.63;46.36
63321;BME280;49449;48.800;9.534;2023-04-21T07:25:29;98185.31;;;7.64;46.05
63321;BME280;49449;48.800;9.534;2023-04-21T07:27:57;98188.09;;;7.69;45.93
63321;BME280;49449;48.800;9.534;2023-04-21T07:30:25;98189.25;;;7.73;45.48
63321;BME280;49449;48.800;9.534;2023-04-21T07:32:53;98185.19;;;7.77;45.52
63321;BME280;49449;48.800;9.534;2023-04-21T07:35:20;98168.97;;;7.81;45.41
63321;BME280;49449;48.800;9.534;2023-04-21T07:37:48;98170.59;;;7.82;45.26
63321;BME280;49449;48.800;9.534;2023-04-21T07:40:17;98168.53;;;7.84;45.15
63321;BME280;49449;48.800;9.534;2023-04-21T07:42:45;98176.56;;;7.89;45.26
63321;BME280;49449;48.800;9.534;2023-04-21T07:45:13;98171.69;;;7.92;45.19
63321;BME280;49449;48.800;9.534;2023-04-21T07:47:41;98165.19;;;7.95;45.12
63321;BME280;49449;48.800;9.534;2023-04-21T07:50:09;98175.03;;;8.00;45.01
63321;BME280;49449;48.800;9.534;2023-04-21T07:52:37;98181.91;;;8.01;45.14
63321;BME280;49449;48.800;9.534;2023-04-21T07:55:05;98177.25;;;8.03;44.98
63321;BME280;49449;48.800;9.534;2023-04-21T07:57:34;98176.38;;;8.09;45.03
63321;BME280;49449;48.800;9.534;2023-04-21T08:00:05;98172.41;;;8.18;45.15
63321;BME280;49449;48.800;9.534;2023-04-21T08:02:33;98163.75;;;8.29;44.86
63321;BME280;49449;48.800;9.534;2023-04-21T08:05:01;98167.84;;;8.44;44.91
63321;BME280;49449;48.800;9.534;2023-04-21T08:07:29;98172.94;;;8.57;44.72
63321;BME280;49449;48.800;9.534;2023-04-21T08:09:57;98172.03;;;8.63;44.90
63321;BME280;49449;48.800;9.534;2023-04-21T08:12:25;98175.94;;;8.61;45.09
63321;BME280;49449;48.800;9.534;2023-04-21T08:14:54;98175.13;;;8.60;45.04
63321;BME280;49449;48.800;9.534;2023-04-21T08:17:22;98172.50;;;8.60;45.06
63321;BME280;49449;48.800;9.534;2023-04-21T08:19:50;98162.53;;;8.62;45.05
63321;BME280;49449;48.800;9.534;2023-04-21T08:22:17;98163.69;;;8.66;45.54
63321;BME280;49449;48.800;9.534;2023-04-21T08:24:45;98165.75;;;8.64;45.47
63321;BME280;49449;48.800;9.534;2023-04-21T08:27:13;98152.72;;;8.69;45.45
63321;BME280;49449;48.800;9.534;2023-04-21T08:29:41;98164.56;;;8.79;45.51
63321;BME280;49449;48.800;9.534;2023-04-21T08:32:10;98162.88;;;8.96;45.41
63321;BME280;49449;48.800;9.534;2023-04-21T08:34:38;98162.00;;;9.14;45.16
63321;BME280;49449;48.800;9.534;2023-04-21T08:37:06;98158.81;;;9.24;45.02
63321;BME280;49449;48.800;9.534;2023-04-21T08:39:34;98157.13;;;9.41;44.76
63321;BME280;49449;48.800;9.534;2023-04-21T08:42:02;98159.75;;;9.65;44.54
63321;BME280;49449;48.800;9.534;2023-04-21T08:44:30;98161.25;;;9.84;44.36
63321;BME280;49449;48.800;9.534;2023-04-21T08:46:58;98162.69;;;10.16;44.44
63321;BME280;49449;48.800;9.534;2023-04-21T08:49:31;98155.00;;;10.43;43.59
63321;BME280;49449;48.800;9.534;2023-04-21T08:51:59;98148.06;;;10.54;43.50
63321;BME280;49449;48.800;9.534;2023-04-21T08:54:27;98142.34;;;10.74;43.54
63321;BME280;49449;48.800;9.534;2023-04-21T08:56:55;98142.78;;;10.83;43.19
63321;BME280;49449;48.800;9.534;2023-04-21T08:59:27;98139.38;;;10.99;40.96
63321;BME280;49449;48.800;9.534;2023-04-21T09:02:11;98132.78;;;11.18;41.08
63321;BME280;49449;48.800;9.534;2023-04-21T09:04:42;98134.28;;;11.48;39.91
63321;BME280;49449;48.800;9.534;2023-04-21T09:07:11;98141.69;;;11.68;41.16
63321;BME280;49449;48.800;9.534;2023-04-21T09:09:52;98129.78;;;11.66;40.19
63321;BME280;49449;48.800;9.534;2023-04-21T09:12:20;98125.28;;;11.66;39.35
63321;BME280;49449;48.800;9.534;2023-04-21T09:14:48;98131.41;;;11.72;39.42
63321;BME280;49449;48.800;9.534;2023-04-21T09:17:16;98132.50;;;11.93;39.39
63321;BME280;49449;48.800;9.534;2023-04-21T09:19:45;98131.16;;;12.12;39.41
63321;BME280;49449;48.800;9.534;2023-04-21T09:22:14;98127.13;;;12.32;38.71
63321;BME280;49449;48.800;9.534;2023-04-21T09:24:45;98124.88;;;12.46;38.30
63321;BME280;49449;48.800;9.534;2023-04-21T09:27:14;98122.66;;;12.60;38.42
63321;BME280;49449;48.800;9.534;2023-04-21T09:29:46;98125.00;;;12.83;37.68
63321;BME280;49449;48.800;9.534;2023-04-21T09:32:18;98122.03;;;13.07;38.38
63321;BME280;49449;48.800;9.534;2023-04-21T09:34:47;98111.41;;;13.07;38.07
63321;BME280;49449;48.800;9.534;2023-04-21T09:37:16;98111.69;;;13.11;38.00
63321;BME280;49449;48.800;9.534;2023-04-21T09:39:44;98114.69;;;13.19;37.88
63321;BME280;49449;48.800;9.534;2023-04-21T09:42:27;98112.31;;;13.23;37.42
63321;BME280;49449;48.800;9.534;2023-04-21T09:44:55;98122.22;;;13.38;37.36
63321;BME280;49449;48.800;9.534;2023-04-21T09:47:33;98120.97;;;13.45;36.88
63321;BME280;49449;48.800;9.534;2023-04-21T09:50:10;98122.94;;;13.23;37.15
63321;BME280;49449;48.800;9.534;2023-04-21T09:52:39;98121.38;;;13.32;37.82
63321;BME280;49449;48.800;9.534;2023-04-21T09:55:10;98114.47;;;13.31;37.39
63321;BME280;49449;48.800;9.534;2023-04-21T09:57:40;98112.22;;;13.50;37.30
63321;BME280;49449;48.800;9.534;2023-04-21T10:00:12;98111.00;;;13.63;36.99
63321;BME280;49449;48.800;9.534;2023-04-21T10:02:43;98109.22;;;13.79;36.79
63321;BME280;49449;48.800;9.534;2023-04-21T10:05:12;98107.97;;;13.97;36.94
63321;BME280;49449;48.800;9.534;2023-04-21T10:07:40;98092.91;;;14.23;36.67
63321;BME280;49449;48.800;9.534;2023-04-21T10:10:15;98089.19;;;14.34;35.72
63321;BME280;49449;48.800;9.534;2023-04-21T10:12:45;98094.00;;;14.53;35.15
63321;BME280;49449;48.800;9.534;2023-04-21T10:15:28;98095.66;;;14.74;35.78
63321;BME280;49449;48.800;9.534;2023-04-21T10:18:10;98089.50;;;14.74;35.40
63321;BME280;49449;48.800;9.534;2023-04-21T10:20:51;98085.25;;;14.57;34.80
63321;BME280;49449;48.800;9.534;2023-04-21T10:23:30;98081.28;;;14.60;36.05
63321;BME280;49449;48.800;9.534;2023-04-21T10:26:02;98080.75;;;14.89;35.22
63321;BME280;49449;48.800;9.534;2023-04-21T10:28:45;98067.47;;;14.94;35.28
63321;BME280;49449;48.800;9.534;2023-04-21T10:31:21;98060.25;;;15.05;35.72
63321;BME280;49449;48.800;9.534;2023-04-21T10:34:18;98061.56;;;15.18;34.65
63321;BME280;49449;48.800;9.534;2023-04-21T10:39:34;98072.22;;;15.02;34.85
63321;BME280;49449;48.800;9.534;2023-04-21T10:42:22;98072.78;;;14.94;34.19
63321;BME280;49449;48.800;9.534;2023-04-21T10:44:52;98068.50;;;14.88;35.24
63321;BME280;49449;48.800;9.534;2023-04-21T10:47:24;98070.63;;;14.70;35.14
63321;BME280;49449;48.800;9.534;2023-04-21T10:49:55;98057.38;;;14.55;35.23
63321;BME280;49449;48.800;9.534;2023-04-21T10:52:30;98061.84;;;14.39;35.91
63321;BME280;49449;48.800;9.534;2023-04-21T10:55:07;98049.91;;;14.47;35.53
63321;BME280;49449;48.800;9.534;2023-04-21T10:57:41;98053.09;;;14.59;36.18
63321;BME280;49449;48.800;9.534;2023-04-21T11:00:10;98049.91;;;14.62;35.34
63321;BME280;49449;48.800;9.534;2023-04-21T11:02:41;98048.56;;;14.65;35.67
63321;BME280;49449;48.800;9.534;2023-04-21T11:05:10;98047.25;;;14.67;35.15
63321;BME280;49449;48.800;9.534;2023-04-21T11:07:39;98043.25;;;14.80;35.04
63321;BME280;49449;48.800;9.534;2023-04-21T11:10:08;98047.50;;;14.91;35.15
63321;BME280;49449;48.800;9.534;2023-04-21T11:12:38;98049.34;;;15.01;34.41
63321;BME280;49449;48.800;9.534;2023-04-21T11:15:08;98043.00;;;14.87;34.93
63321;BME280;49449;48.800;9.534;2023-04-21T11:17:36;98038.19;;;14.94;35.22
63321;BME280;49449;48.800;9.534;2023-04-21T11:20:06;98035.00;;;14.92;35.14
63321;BME280;49449;48.800;9.534;2023-04-21T11:22:36;98027.56;;;14.94;34.79
63321;BME280;49449;48.800;9.534;2023-04-21T11:25:15;98041.38;;;15.01;34.00
63321;BME280;49449;48.800;9.534;2023-04-21T11:27:52;98026.69;;;15.24;34.54
63321;BME280;49449;48.800;9.534;2023-04-21T11:30:20;98022.44;;;15.33;34.66
63321;BME280;49449;48.800;9.534;2023-04-21T11:32:52;98026.19;;;15.07;34.66
63321;BME280;49449;48.800;9.534;2023-04-21T11:35:20;98019.00;;;15.12;34.89
63321;BME280;49449;48.800;9.534;2023-04-21T11:37:49;98013.66;;;15.18;34.48
63321;BME280;49449;48.800;9.534;2023-04-21T11:40:19;98023.25;;;15.29;34.79
63321;BME280;49449;48.800;9.534;2023-04-21T11:42:47;98025.06;;;15.44;34.69
63321;BME280;49449;48.800;9.534;2023-04-21T11:45:16;98016.56;;;15.37;35.14
63321;BME280;49449;48.800;9.534;2023-04-21T11:47:46;98013.94;;;15.16;35.04
63321;BME280;49449;48.800;9.534;2023-04-21T11:50:29;98012.09;;;15.17;35.12
63321;BME280;49449;48.800;9.534;2023-04-21T11:52:57;98008.59;;;15.26;34.89
63321;BME280;49449;48.800;9.534;2023-04-21T11:55:27;98008.59;;;15.21;34.90
63321;BME280;49449;48.800;9.534;2023-04-21T11:57:55;98008.94;;;14.99;35.04
63321;BME280;49449;48.800;9.534;2023-04-21T12:00:28;98010.22;;;15.17;35.25
63321;BME280;49449;48.800;9.534;2023-04-21T12:02:56;98012.13;;;14.91;34.97
63321;BME280;49449;48.800;9.534;2023-04-21T12:05:33;98015.56;;;15.07;35.56
63321;BME280;49449;48.800;9.534;2023-04-21T12:08:01;98011.78;;;15.23;34.97
63321;BME280;49449;48.800;9.534;2023-04-21T12:10:33;98005.19;;;14.95;35.38
63321;BME280;49449;48.800;9.534;2023-04-21T12:13:00;97997.72;;;15.12;35.29
63321;BME280;49449;48.800;9.534;2023-04-21T12:15:29;97999.00;;;15.25;35.54
63321;BME280;49449;48.800;9.534;2023-04-21T12:17:57;97999.31;;;15.29;34.94
63321;BME280;49449;48.800;9.534;2023-04-21T12:20:27;97999.00;;;15.36;35.18
63321;BME280;49449;48.800;9.534;2023-04-21T12:22:55;97992.13;;;15.29;35.65
63321;BME280;49449;48.800;9.534;2023-04-21T12:25:23;97990.16;;;15.50;35.38
63321;BME280;49449;48.800;9.534;2023-04-21T12:27:56;97993.81;;;15.65;35.17
63321;BME280;49449;48.800;9.534;2023-04-21T12:30:24;97987.16;;;15.62;35.01
63321;BME280;49449;48.800;9.534;2023-04-21T12:32:52;97985.84;;;15.65;34.87
63321;BME280;49449;48.800;9.534;2023-04-21T12:35:21;97987.72;;;15.64;34.92
63321;BME280;49449;48.800;9.534;2023-04-21T12:37:48;97985.56;;;15.66;34.23
63321;BME280;49449;48.800;9.534;2023-04-21T12:40:16;97973.31;;;15.65;35.18
63321;BME280;49449;48.800;9.534;2023-04-21T12:42:44;97974.88;;;15.71;34.81
63321;BME280;49449;48.800;9.534;2023-04-21T12:45:15;97969.38;;;15.58;34.04
63321;BME280;49449;48.800;9.534;2023-04-21T12:47:43;97964.72;;;15.79;33.91
63321;BME280;49449;48.800;9.534;2023-04-21T12:50:12;97960.25;;;15.69;33.49
63321;BME280;49449;48.800;9.534;2023-04-21T12:52:40;97952.28;;;15.64;32.49
63321;BME280;49449;48.800;9.534;2023-04-21T12:55:08;97946.06;;;15.84;32.96
63321;BME280;49449;48.800;9.534;2023-04-21T12:57:36;97947.59;;;15.90;34.20
63321;BME280;49449;48.800;9.534;2023-04-21T13:00:05;97943.56;;;15.98;33.63
63321;BME280;49449;48.800;9.534;2023-04-21T13:02:35;97933.94;;;16.02;33.28
63321;BME280;49449;48.800;9.534;2023-04-21T13:05:03;97943.81;;;16.01;33.55
63321;BME280;49449;48.800;9.534;2023-04-21T13:07:32;97937.38;;;16.02;32.91
63321;BME280;49449;48.800;9.534;2023-04-21T13:10:00;97939.31;;;15.97;33.40
63321;BME280;49449;48.800;9.534;2023-04-21T13:12:28;97940.53;;;16.15;33.71
63321;BME280;49449;48.800;9.534;2023-04-21T13:14:56;97939.38;;;16.26;33.18
63321;BME280;49449;48.800;9.534;2023-04-21T13:17:23;97939.13;;;16.22;33.49
63321;BME280;49449;48.800;9.534;2023-04-21T13:19:53;97934.91;;;16.16;33.25